No Warnings, Watches, or Advisories

Active alerts


No alerts

Hours of Daylight

11 hrs 8 min 3 sec
of Daylight Today
46.4% Day 53.6% Night Which is
2 min 39 sec Longer
Than Yesterday

South Webcam more information South Webcam


NorthWest Webcam more information NorthWest Webcam


You find our weather info also at:

UK Metoffice

Weather Underground

Mid-Atlantic Weather Network

WeatherlinkIP

Citizen Weather Observer Program (CWOP)

HAMweather, WeatherForYou, PWS Weather



Nearby METAR Reports

   
KDUJ - Du Bois, Pennsylvania, USA
Distance from station: NNE 16 mi
Updated: Feb 26 2024 6:53 pm
Clear  
Clear  
   Wind: Calm
Wind: Calm
Temperature: 55.4°F
Dew Point: 28.4°F
Humidity: 36%
Barometer: 29.88 inHg
Clouds: Clear
Visibility: 10 mi
Cloud details: Clear
KDUJ 262353Z AUTO 00000KT 10SM CLR 13/M02 A2988 RMK AO2 SLP123 T01331017 10161 20133 55003
KIDI - Indiana/Stewart, Pennsylvania, USA
Distance from station: SSW 23 mi
Updated: Feb 26 2024 6:55 pm
Clear  
Clear  
   Wind: East 3.5 mph
Wind: East 3.5 mph
Temperature: 48.2°F
Wind Chill: 46.4°F
Dew Point: 35.6°F
Humidity: 62%
Barometer: 29.92 inHg
Clouds: Clear
Visibility: 10 mi
Cloud details: Clear
KIDI 262355Z AUTO 10003KT 10SM CLR 09/02 A2992 RMK A01
KFIG - Clearfield, Pennsylvania, USA
Distance from station: ENE 31 mi
Updated: Feb 26 2024 6:54 pm
Clear  
Clear  
   Wind: ESE 3.5 mph
Wind: ESE 3.5 mph
Temperature: 53.6°F
Dew Point: 28.4°F
Humidity: 38%
Barometer: 29.9 inHg
Clouds: Clear
Visibility: 10 mi
Cloud details: Clear
KFIG 262354Z AUTO 11003KT 10SM CLR 12/M02 A2990 RMK AO2 SLP133 T01221017 10167 20122 55001
KJST - Johnstown, Pennsylvania, USA
Distance from station: S 44 mi
Updated: Feb 26 2024 6:54 pm
Clear  
Clear  
   Wind: SE 4.6 mph
Wind: SE 4.6 mph
Temperature: 51.8°F
Dew Point: 32°F
Humidity: 47%
Barometer: 29.9 inHg
Clouds: Clear
Visibility: 10 mi
Cloud details: Clear
KJST 262354Z AUTO 14004KT 10SM CLR 11/00 A2990 RMK AO2 SLP133 T01110000 10144 20111 53000
KPIT - Pittsburgh, Pennsylvania, USA
Distance from station: WSW 74 mi
Updated: Feb 26 2024 6:51 pm
Few Clouds  
Few Clouds  
   Wind: Calm
Wind: Calm
Temperature: 60.8°F
Dew Point: 33.8°F
Humidity: 36%
Barometer: 29.86 inHg
Clouds: Few Clouds
Visibility: 10 mi
Cloud details: Few Clouds 15000 ft,
Few Clouds 25000 ft
KPIT 262351Z 00000KT 10SM FEW150 FEW250 16/01 A2986 RMK AO2 SLP123 T01560011 10183 20156 55003
KLBE - Latrobe/Westmorl, Pennsylvania, USA
Distance from station: SSW 52 mi
Updated: Feb 26 2024 6:50 pm
Clear  
Clear  
   Wind: Calm
Wind: Calm
Temperature: 53.6°F
Dew Point: 37.4°F
Humidity: 54%
Barometer: 29.89 inHg
Clouds: Clear
Visibility: 10 mi
Cloud details: Clear
KLBE 262350Z 00000KT 10SM CLR 12/03 A2989
KBTP - Butler Co., Pennsylvania, USA
Distance from station: WSW 52 mi
Updated: Feb 26 2024 6:56 pm
Clear  
Clear  
   Wind: ESE 5.8 mph
Wind: ESE 5.8 mph
Temperature: 55.4°F
Dew Point: 33.8°F
Humidity: 44%
Barometer: 29.88 inHg
Clouds: Clear
Visibility: 10 mi
Cloud details: Clear
KBTP 262356Z AUTO 12005KT 10SM CLR 13/01 A2988 RMK AO2 SLP127 T01330011 10167 20133 55005 TSNO $
KUCP - New Castle Muni, Pennsylvania, USA
Distance from station: W 75 mi
Updated: Feb 26 2024 6:56 pm
Clear  
Clear  
   Wind: SSE 3.5 mph
Wind: SSE 3.5 mph
Temperature: 53.6°F
Dew Point: 33.8°F
Humidity: 47%
Barometer: 29.86 inHg
Clouds: Clear
Visibility: 10 mi
Cloud details: Clear
KUCP 262356Z AUTO 15003KT 10SM CLR 12/01 A2986 RMK AO2 SLP131 6//// T01220006 10178 20117 55006 PNO $
KFKL - Franklin, Pennsylvania, USA
Distance from station: WNW 54 mi
Updated: Feb 26 2024 6:56 pm
  
  
   Wind: SSE 5.8 mph
Wind: SSE 5.8 mph
Temperature: 53.6°F
Dew Point: 30.2°F
Humidity: 41%
Barometer: 29.87 inHg
Visibility: 10 mi
KFKL 262356Z AUTO 15005KT 10SM 12/M01 A2987 RMK AO2 SLP124 T01221011 10150 20122 55005 $
KAOO - Altoona, Pennsylvania, USA
Distance from station: SE 57 mi
Updated: Feb 26 2024 6:53 pm
Clear  
Clear  
   Wind: SSE 13.8 mph
Wind: SSE 13.8 mph
Temperature: 55.4°F
Dew Point: 33.8°F
Humidity: 44%
Barometer: 29.92 inHg
Clouds: Clear
Visibility: 10 mi
Cloud details: Clear
KAOO 262353Z AUTO 15012KT 10SM CLR 13/01 A2992 RMK AO2 SLP138 T01330006 10172 20117 53002
KUNV - State College, Pennsylvania, USA
Distance from station: E 61 mi
Updated: Feb 26 2024 6:53 pm
Clear  
Clear  
   Wind: varies 4.6 mph
Wind: varies 4.6 mph
Temperature: 53.6°F
Dew Point: 30.2°F
Humidity: 41%
Barometer: 29.92 inHg
Clouds: Clear
Visibility: 10 mi
Cloud details: Clear
KUNV 262353Z VRB04KT 10SM CLR 12/M01 A2992
KBFD - Bradford, Pennsylvania, USA
Distance from station: NNE 62 mi
Updated: Feb 26 2024 6:53 pm
Clear  
Clear  
   Wind: Calm
Wind: Calm
Temperature: 46.4°F
Dew Point: 28.4°F
Humidity: 50%
Barometer: 29.89 inHg
Clouds: Clear
Visibility: 10 mi
Cloud details: Clear
KBFD 262353Z AUTO 00000KT 10SM CLR 08/M02 A2989 RMK AO2 SLP130 T00831017 10144 20083 53000

Script developed by  Saratoga-weather.org Adapted for the template by  Weerstation Leuven

Equipment we use:

Weather-station
Davis VP2

Weather-program
Cumulus

Weather-server
Dell Latitude e5450

Provider
Host On A Rope

Davis VP2

Cumulus

Dell Latitude e5450

Host On A Rope